Pagina principale
METAR-TAF:

METAR-TAF

Aeroporti :

Aeroporto di Nizza Costa Azzurra

Nizza, Francia

latitudine: 43-39N, longitudine: 007-12E, altezza: 4 m

Osservazione

Il bollettino è stato emesso 20 minuti fa, alle 01:00 UTC
Vento 3 kt da nord/nord-est
Temperature 23°C
Umidità 83%
Pressione 1015 hPa
Visibilità 10 km o più
nessuna nube inferiore a 1500 m e nessun cumulonembo

METAR: LFMN 150100Z 03003KT CAVOK 23/20 Q1015 NOSIG

Ora: 03:20 (01:20 UTC)

Previsione

Il bollettino è stato emesso 5 ore e 20 minuti fa, alle 20:00 UTC
Previsione valida dal 14 alle 21 UTC al 16 alle 03 UTC
Vento 3 kt da direzioni variabili
Visibilità 10 km o più
nessuna nube inferiore a 1500 m e nessun cumulonembo
Probabilità 40% :
Temporaneamente
dal 14 alle 21 UTC al 15 alle 07 UTC
Nuvoloso ad un'altezza di 500 ft

TAF: LFMN 142000Z 1421/1603 VRB03KT CAVOK PROB40 TEMPO 1421/1507 BKN005

Osservazioni e previsioni meteorologiche di più di 4000 aeroporti (messaggi METAR e TAF).

Le stazioni disponibili sono rappresentate dai dischi gialli e rossi sulla carta.

Puntare il mouse per vedere il nome della stazione.

Clicca sopra per visualizzare le osservazioni e previsioni meteorologiche.

Per cambiare la mappa : fare clic sui pulsanti verdi con una croce nera per ingrandire, il pulsante verde con un trattino per diminuire, o sulla freccia verde per le mappe adiacenti.


METAR-TAF: